sensor_id;sensor_type;location;lat;lon;timestamp;temperature;humidity
19970;DHT22;10146;47.754;9.566;2023-02-23T00:01:35;7.30;99.90
19970;DHT22;10146;47.754;9.566;2023-02-23T00:04:02;7.30;99.90
19970;DHT22;10146;47.754;9.566;2023-02-23T00:06:29;7.30;99.90
19970;DHT22;10146;47.754;9.566;2023-02-23T00:08:55;7.20;99.90
19970;DHT22;10146;47.754;9.566;2023-02-23T00:11:22;7.20;99.90
19970;DHT22;10146;47.754;9.566;2023-02-23T00:13:49;7.30;99.90
19970;DHT22;10146;47.754;9.566;2023-02-23T00:16:18;7.30;99.90
19970;DHT22;10146;47.754;9.566;2023-02-23T00:18:52;7.30;99.90
19970;DHT22;10146;47.754;9.566;2023-02-23T00:21:26;7.20;99.90
19970;DHT22;10146;47.754;9.566;2023-02-23T00:23:57;7.00;99.90
19970;DHT22;10146;47.754;9.566;2023-02-23T00:26:26;7.00;99.90
19970;DHT22;10146;47.754;9.566;2023-02-23T00:28:55;7.00;99.90
19970;DHT22;10146;47.754;9.566;2023-02-23T00:31:22;7.10;99.90
19970;DHT22;10146;47.754;9.566;2023-02-23T00:33:55;7.10;99.90
19970;DHT22;10146;47.754;9.566;2023-02-23T00:36:23;7.10;99.90
19970;DHT22;10146;47.754;9.566;2023-02-23T00:38:52;7.10;99.90
19970;DHT22;10146;47.754;9.566;2023-02-23T00:41:19;7.10;99.90
19970;DHT22;10146;47.754;9.566;2023-02-23T00:43:48;7.00;99.90
19970;DHT22;10146;47.754;9.566;2023-02-23T00:46:18;7.00;99.90
19970;DHT22;10146;47.754;9.566;2023-02-23T00:48:47;7.00;99.90
19970;DHT22;10146;47.754;9.566;2023-02-23T00:51:13;7.00;99.90
19970;DHT22;10146;47.754;9.566;2023-02-23T00:53:40;7.00;99.90
19970;DHT22;10146;47.754;9.566;2023-02-23T00:56:08;7.00;99.90
19970;DHT22;10146;47.754;9.566;2023-02-23T00:58:34;6.90;99.90
19970;DHT22;10146;47.754;9.566;2023-02-23T01:01:00;6.90;99.90
19970;DHT22;10146;47.754;9.566;2023-02-23T01:03:28;7.00;99.90
19970;DHT22;10146;47.754;9.566;2023-02-23T01:05:58;7.10;99.90
19970;DHT22;10146;47.754;9.566;2023-02-23T01:08:23;7.10;99.90
19970;DHT22;10146;47.754;9.566;2023-02-23T01:10:49;7.10;99.90
19970;DHT22;10146;47.754;9.566;2023-02-23T01:13:21;7.10;99.90
19970;DHT22;10146;47.754;9.566;2023-02-23T01:15:47;7.10;99.90
19970;DHT22;10146;47.754;9.566;2023-02-23T01:18:18;7.10;99.90
19970;DHT22;10146;47.754;9.566;2023-02-23T01:20:45;7.20;99.90
19970;DHT22;10146;47.754;9.566;2023-02-23T01:23:12;7.20;99.90
19970;DHT22;10146;47.754;9.566;2023-02-23T01:25:40;7.20;99.90
19970;DHT22;10146;47.754;9.566;2023-02-23T01:28:08;7.20;99.90
19970;DHT22;10146;47.754;9.566;2023-02-23T01:30:33;7.10;99.90
19970;DHT22;10146;47.754;9.566;2023-02-23T01:32:59;7.20;99.90
19970;DHT22;10146;47.754;9.566;2023-02-23T01:35:27;7.20;99.90
19970;DHT22;10146;47.754;9.566;2023-02-23T01:37:53;7.20;99.90
19970;DHT22;10146;47.754;9.566;2023-02-23T01:40:21;7.10;99.90
19970;DHT22;10146;47.754;9.566;2023-02-23T01:43:10;7.20;99.90
19970;DHT22;10146;47.754;9.566;2023-02-23T01:45:36;7.30;99.90
19970;DHT22;10146;47.754;9.566;2023-02-23T01:48:08;7.30;99.90
19970;DHT22;10146;47.754;9.566;2023-02-23T01:53:50;7.40;99.90
19970;DHT22;10146;47.754;9.566;2023-02-23T01:56:21;7.40;99.90
19970;DHT22;10146;47.754;9.566;2023-02-23T01:58:49;7.40;99.90
19970;DHT22;10146;47.754;9.566;2023-02-23T02:01:19;7.30;99.90
19970;DHT22;10146;47.754;9.566;2023-02-23T02:04:01;7.30;99.90
19970;DHT22;10146;47.754;9.566;2023-02-23T02:06:30;7.40;99.90
19970;DHT22;10146;47.754;9.566;2023-02-23T02:09:06;7.40;99.90
19970;DHT22;10146;47.754;9.566;2023-02-23T02:11:33;7.40;99.90
19970;DHT22;10146;47.754;9.566;2023-02-23T02:17:05;7.40;99.90
19970;DHT22;10146;47.754;9.566;2023-02-23T02:25:23;7.40;99.90
19970;DHT22;10146;47.754;9.566;2023-02-23T02:39:20;7.30;99.90
19970;DHT22;10146;47.754;9.566;2023-02-23T02:45:21;7.20;99.90
19970;DHT22;10146;47.754;9.566;2023-02-23T02:48:02;7.30;99.90
19970;DHT22;10146;47.754;9.566;2023-02-23T02:50:42;7.30;99.90
19970;DHT22;10146;47.754;9.566;2023-02-23T02:53:15;7.30;99.90
19970;DHT22;10146;47.754;9.566;2023-02-23T02:55:42;7.40;99.90
19970;DHT22;10146;47.754;9.566;2023-02-23T02:58:10;7.40;99.90
19970;DHT22;10146;47.754;9.566;2023-02-23T03:00:41;7.40;99.90
19970;DHT22;10146;47.754;9.566;2023-02-23T03:03:42;7.40;99.90
19970;DHT22;10146;47.754;9.566;2023-02-23T03:07:07;7.30;99.90
19970;DHT22;10146;47.754;9.566;2023-02-23T03:10:07;7.40;99.90
19970;DHT22;10146;47.754;9.566;2023-02-23T03:13:15;7.40;99.90
19970;DHT22;10146;47.754;9.566;2023-02-23T03:16:23;7.20;99.90
19970;DHT22;10146;47.754;9.566;2023-02-23T03:19:16;7.30;99.90
19970;DHT22;10146;47.754;9.566;2023-02-23T03:25:21;7.40;99.90
19970;DHT22;10146;47.754;9.566;2023-02-23T03:28:16;7.40;99.90
19970;DHT22;10146;47.754;9.566;2023-02-23T03:31:26;7.50;99.90
19970;DHT22;10146;47.754;9.566;2023-02-23T03:34:27;7.40;99.90
19970;DHT22;10146;47.754;9.566;2023-02-23T03:37:21;7.40;99.90
19970;DHT22;10146;47.754;9.566;2023-02-23T03:40:18;7.50;99.90
19970;DHT22;10146;47.754;9.566;2023-02-23T03:43:06;7.60;99.90
19970;DHT22;10146;47.754;9.566;2023-02-23T03:45:52;7.70;99.90
19970;DHT22;10146;47.754;9.566;2023-02-23T03:48:39;7.50;99.90
19970;DHT22;10146;47.754;9.566;2023-02-23T03:51:29;7.50;99.90
19970;DHT22;10146;47.754;9.566;2023-02-23T03:54:26;7.50;99.90
19970;DHT22;10146;47.754;9.566;2023-02-23T03:57:15;7.40;99.90
19970;DHT22;10146;47.754;9.566;2023-02-23T04:00:04;7.50;99.90
19970;DHT22;10146;47.754;9.566;2023-02-23T04:02:51;7.60;99.90
19970;DHT22;10146;47.754;9.566;2023-02-23T04:05:39;7.50;99.90
19970;DHT22;10146;47.754;9.566;2023-02-23T04:08:29;7.60;99.90
19970;DHT22;10146;47.754;9.566;2023-02-23T04:11:45;7.60;99.90
19970;DHT22;10146;47.754;9.566;2023-02-23T04:14:48;7.50;99.90
19970;DHT22;10146;47.754;9.566;2023-02-23T04:17:17;7.50;99.90
19970;DHT22;10146;47.754;9.566;2023-02-23T04:19:53;7.50;99.90
19970;DHT22;10146;47.754;9.566;2023-02-23T04:22:19;7.40;99.90
19970;DHT22;10146;47.754;9.566;2023-02-23T04:24:45;7.50;99.90
19970;DHT22;10146;47.754;9.566;2023-02-23T04:27:12;7.40;99.90
19970;DHT22;10146;47.754;9.566;2023-02-23T04:29:38;7.50;99.90
19970;DHT22;10146;47.754;9.566;2023-02-23T04:32:04;7.40;99.90
19970;DHT22;10146;47.754;9.566;2023-02-23T04:34:30;7.40;99.90
19970;DHT22;10146;47.754;9.566;2023-02-23T04:36:55;7.50;99.90
19970;DHT22;10146;47.754;9.566;2023-02-23T04:39:21;7.50;99.90
19970;DHT22;10146;47.754;9.566;2023-02-23T04:41:47;7.50;99.90
19970;DHT22;10146;47.754;9.566;2023-02-23T04:44:15;7.40;99.90
19970;DHT22;10146;47.754;9.566;2023-02-23T04:46:41;7.40;99.90
19970;DHT22;10146;47.754;9.566;2023-02-23T04:49:06;7.40;99.90
19970;DHT22;10146;47.754;9.566;2023-02-23T04:51:32;7.50;99.90
19970;DHT22;10146;47.754;9.566;2023-02-23T04:53:58;7.50;99.90
19970;DHT22;10146;47.754;9.566;2023-02-23T04:56:24;7.50;99.90
19970;DHT22;10146;47.754;9.566;2023-02-23T04:58:50;7.60;99.90
19970;DHT22;10146;47.754;9.566;2023-02-23T05:01:16;7.60;99.90
19970;DHT22;10146;47.754;9.566;2023-02-23T05:03:42;7.60;99.90
19970;DHT22;10146;47.754;9.566;2023-02-23T05:06:07;7.60;99.90
19970;DHT22;10146;47.754;9.566;2023-02-23T05:08:33;7.50;99.90
19970;DHT22;10146;47.754;9.566;2023-02-23T05:10:59;7.50;99.90
19970;DHT22;10146;47.754;9.566;2023-02-23T05:13:24;7.50;99.90
19970;DHT22;10146;47.754;9.566;2023-02-23T05:15:54;7.50;99.90
19970;DHT22;10146;47.754;9.566;2023-02-23T05:18:20;7.40;99.90
19970;DHT22;10146;47.754;9.566;2023-02-23T05:20:45;7.50;99.90
19970;DHT22;10146;47.754;9.566;2023-02-23T05:23:11;7.50;99.90
19970;DHT22;10146;47.754;9.566;2023-02-23T05:25:38;7.50;99.90
19970;DHT22;10146;47.754;9.566;2023-02-23T05:28:04;7.60;99.90
19970;DHT22;10146;47.754;9.566;2023-02-23T05:30:30;7.50;99.90
19970;DHT22;10146;47.754;9.566;2023-02-23T05:32:56;7.50;99.90
19970;DHT22;10146;47.754;9.566;2023-02-23T05:35:21;7.50;99.90
19970;DHT22;10146;47.754;9.566;2023-02-23T05:37:47;7.50;99.90
19970;DHT22;10146;47.754;9.566;2023-02-23T05:40:13;7.60;99.90
19970;DHT22;10146;47.754;9.566;2023-02-23T05:42:39;7.60;99.90
19970;DHT22;10146;47.754;9.566;2023-02-23T05:45:05;7.70;99.90
19970;DHT22;10146;47.754;9.566;2023-02-23T05:47:31;7.60;99.90
19970;DHT22;10146;47.754;9.566;2023-02-23T05:49:59;7.60;99.90
19970;DHT22;10146;47.754;9.566;2023-02-23T05:52:26;7.60;99.90
19970;DHT22;10146;47.754;9.566;2023-02-23T05:54:54;7.60;99.90
19970;DHT22;10146;47.754;9.566;2023-02-23T05:57:19;7.60;99.90
19970;DHT22;10146;47.754;9.566;2023-02-23T05:59:45;7.60;99.90
19970;DHT22;10146;47.754;9.566;2023-02-23T06:02:10;7.60;99.90
19970;DHT22;10146;47.754;9.566;2023-02-23T06:04:36;7.60;99.90
19970;DHT22;10146;47.754;9.566;2023-02-23T06:07:02;7.60;99.90
19970;DHT22;10146;47.754;9.566;2023-02-23T06:09:27;7.70;99.90
19970;DHT22;10146;47.754;9.566;2023-02-23T06:11:53;7.70;99.90
19970;DHT22;10146;47.754;9.566;2023-02-23T06:14:18;7.60;99.90
19970;DHT22;10146;47.754;9.566;2023-02-23T06:16:44;7.70;99.90
19970;DHT22;10146;47.754;9.566;2023-02-23T06:19:10;7.70;99.90
19970;DHT22;10146;47.754;9.566;2023-02-23T06:21:36;7.70;99.90
19970;DHT22;10146;47.754;9.566;2023-02-23T06:24:01;7.80;99.90
19970;DHT22;10146;47.754;9.566;2023-02-23T06:26:27;7.70;99.90
19970;DHT22;10146;47.754;9.566;2023-02-23T06:28:53;7.70;99.90
19970;DHT22;10146;47.754;9.566;2023-02-23T06:31:20;7.70;99.90
19970;DHT22;10146;47.754;9.566;2023-02-23T06:33:45;7.60;99.90
19970;DHT22;10146;47.754;9.566;2023-02-23T06:36:12;7.60;99.90
19970;DHT22;10146;47.754;9.566;2023-02-23T06:38:38;7.50;99.90
19970;DHT22;10146;47.754;9.566;2023-02-23T06:41:08;7.60;99.90
19970;DHT22;10146;47.754;9.566;2023-02-23T06:43:34;7.50;99.90
19970;DHT22;10146;47.754;9.566;2023-02-23T06:45:59;7.60;99.90
19970;DHT22;10146;47.754;9.566;2023-02-23T06:48:25;7.70;99.90
19970;DHT22;10146;47.754;9.566;2023-02-23T06:50:51;7.70;99.90
19970;DHT22;10146;47.754;9.566;2023-02-23T06:53:17;7.70;99.90
19970;DHT22;10146;47.754;9.566;2023-02-23T06:55:43;7.60;99.90
19970;DHT22;10146;47.754;9.566;2023-02-23T06:58:08;7.60;99.90
19970;DHT22;10146;47.754;9.566;2023-02-23T07:00:34;7.70;99.90
19970;DHT22;10146;47.754;9.566;2023-02-23T07:02:59;7.70;99.90
19970;DHT22;10146;47.754;9.566;2023-02-23T07:05:25;7.70;99.90
19970;DHT22;10146;47.754;9.566;2023-02-23T07:07:51;7.70;99.90
19970;DHT22;10146;47.754;9.566;2023-02-23T07:10:17;7.80;99.90
19970;DHT22;10146;47.754;9.566;2023-02-23T07:12:43;7.90;99.90
19970;DHT22;10146;47.754;9.566;2023-02-23T07:15:09;7.90;99.90
19970;DHT22;10146;47.754;9.566;2023-02-23T07:17:35;8.00;99.90
19970;DHT22;10146;47.754;9.566;2023-02-23T07:20:01;8.00;99.90
19970;DHT22;10146;47.754;9.566;2023-02-23T07:22:27;8.00;99.90
19970;DHT22;10146;47.754;9.566;2023-02-23T07:24:55;7.90;99.90
19970;DHT22;10146;47.754;9.566;2023-02-23T07:27:22;7.90;99.90
19970;DHT22;10146;47.754;9.566;2023-02-23T07:29:47;7.80;99.90
19970;DHT22;10146;47.754;9.566;2023-02-23T07:32:13;7.90;99.90
19970;DHT22;10146;47.754;9.566;2023-02-23T07:34:38;7.90;99.90
19970;DHT22;10146;47.754;9.566;2023-02-23T07:37:04;8.00;99.90
19970;DHT22;10146;47.754;9.566;2023-02-23T07:39:30;8.10;99.90
19970;DHT22;10146;47.754;9.566;2023-02-23T07:41:56;8.10;99.90
19970;DHT22;10146;47.754;9.566;2023-02-23T07:44:22;8.10;99.90
19970;DHT22;10146;47.754;9.566;2023-02-23T07:46:48;8.10;99.90
19970;DHT22;10146;47.754;9.566;2023-02-23T07:49:14;8.10;99.90
19970;DHT22;10146;47.754;9.566;2023-02-23T07:51:40;8.20;99.90
19970;DHT22;10146;47.754;9.566;2023-02-23T07:54:06;8.30;99.90
19970;DHT22;10146;47.754;9.566;2023-02-23T07:56:32;8.40;99.90
19970;DHT22;10146;47.754;9.566;2023-02-23T07:58:58;8.40;99.90
19970;DHT22;10146;47.754;9.566;2023-02-23T08:01:24;8.40;99.90
19970;DHT22;10146;47.754;9.566;2023-02-23T08:03:49;8.50;99.90
19970;DHT22;10146;47.754;9.566;2023-02-23T08:06:16;8.40;99.90
19970;DHT22;10146;47.754;9.566;2023-02-23T08:08:46;8.40;99.90
19970;DHT22;10146;47.754;9.566;2023-02-23T08:11:30;8.50;99.90
19970;DHT22;10146;47.754;9.566;2023-02-23T08:13:56;8.70;99.90
19970;DHT22;10146;47.754;9.566;2023-02-23T08:16:29;8.70;99.90
19970;DHT22;10146;47.754;9.566;2023-02-23T08:19:07;8.80;99.90
19970;DHT22;10146;47.754;9.566;2023-02-23T08:21:33;8.90;99.90
19970;DHT22;10146;47.754;9.566;2023-02-23T08:24:02;8.90;99.90
19970;DHT22;10146;47.754;9.566;2023-02-23T08:26:28;9.00;99.90
19970;DHT22;10146;47.754;9.566;2023-02-23T08:29:06;9.00;99.90
19970;DHT22;10146;47.754;9.566;2023-02-23T08:31:34;9.00;99.90
19970;DHT22;10146;47.754;9.566;2023-02-23T08:34:01;8.90;99.90
19970;DHT22;10146;47.754;9.566;2023-02-23T08:36:29;9.10;99.90
19970;DHT22;10146;47.754;9.566;2023-02-23T08:38:55;9.10;99.90
19970;DHT22;10146;47.754;9.566;2023-02-23T08:41:21;9.20;99.90
19970;DHT22;10146;47.754;9.566;2023-02-23T08:43:47;9.10;99.90
19970;DHT22;10146;47.754;9.566;2023-02-23T08:46:13;9.10;99.90
19970;DHT22;10146;47.754;9.566;2023-02-23T08:48:46;9.10;99.90
19970;DHT22;10146;47.754;9.566;2023-02-23T08:51:18;9.20;99.90
19970;DHT22;10146;47.754;9.566;2023-02-23T08:53:47;9.10;99.90
19970;DHT22;10146;47.754;9.566;2023-02-23T08:56:13;9.30;99.90
19970;DHT22;10146;47.754;9.566;2023-02-23T08:58:42;9.40;99.90
19970;DHT22;10146;47.754;9.566;2023-02-23T09:01:18;9.50;99.90
19970;DHT22;10146;47.754;9.566;2023-02-23T09:03:49;9.50;99.90
19970;DHT22;10146;47.754;9.566;2023-02-23T09:06:18;9.40;99.90
19970;DHT22;10146;47.754;9.566;2023-02-23T09:08:47;9.40;99.90
19970;DHT22;10146;47.754;9.566;2023-02-23T09:11:16;9.60;99.90
19970;DHT22;10146;47.754;9.566;2023-02-23T09:13:45;9.60;99.90
19970;DHT22;10146;47.754;9.566;2023-02-23T09:16:11;9.70;99.90
19970;DHT22;10146;47.754;9.566;2023-02-23T09:18:37;9.70;99.90
19970;DHT22;10146;47.754;9.566;2023-02-23T09:21:10;9.90;99.90
19970;DHT22;10146;47.754;9.566;2023-02-23T09:23:38;9.90;99.90
19970;DHT22;10146;47.754;9.566;2023-02-23T09:26:05;10.00;99.90
19970;DHT22;10146;47.754;9.566;2023-02-23T09:28:32;10.10;99.90
19970;DHT22;10146;47.754;9.566;2023-02-23T09:31:09;10.20;99.90
19970;DHT22;10146;47.754;9.566;2023-02-23T09:33:35;10.10;99.90
19970;DHT22;10146;47.754;9.566;2023-02-23T09:36:09;10.30;99.90
19970;DHT22;10146;47.754;9.566;2023-02-23T09:38:37;10.40;99.90
19970;DHT22;10146;47.754;9.566;2023-02-23T09:41:08;10.40;99.90
19970;DHT22;10146;47.754;9.566;2023-02-23T09:49:28;10.40;99.90
19970;DHT22;10146;47.754;9.566;2023-02-23T09:51:59;10.50;99.90
19970;DHT22;10146;47.754;9.566;2023-02-23T09:54:29;10.50;99.90
19970;DHT22;10146;47.754;9.566;2023-02-23T09:57:03;10.40;99.90
19970;DHT22;10146;47.754;9.566;2023-02-23T09:59:29;10.40;99.90
19970;DHT22;10146;47.754;9.566;2023-02-23T10:04:37;10.60;99.90
19970;DHT22;10146;47.754;9.566;2023-02-23T10:18:15;11.20;99.90
19970;DHT22;10146;47.754;9.566;2023-02-23T10:23:42;11.50;99.90
19970;DHT22;10146;47.754;9.566;2023-02-23T10:26:16;11.60;99.90
19970;DHT22;10146;47.754;9.566;2023-02-23T10:28:42;12.00;99.90
19970;DHT22;10146;47.754;9.566;2023-02-23T10:31:30;12.00;99.90
19970;DHT22;10146;47.754;9.566;2023-02-23T10:34:03;12.10;99.90
19970;DHT22;10146;47.754;9.566;2023-02-23T10:36:34;12.10;99.90
19970;DHT22;10146;47.754;9.566;2023-02-23T10:39:02;12.20;99.90
19970;DHT22;10146;47.754;9.566;2023-02-23T10:41:28;12.20;99.90
19970;DHT22;10146;47.754;9.566;2023-02-23T10:43:54;12.30;99.90
19970;DHT22;10146;47.754;9.566;2023-02-23T10:46:25;12.10;99.90
19970;DHT22;10146;47.754;9.566;2023-02-23T10:48:53;12.20;99.90
19970;DHT22;10146;47.754;9.566;2023-02-23T10:51:26;12.30;99.90
19970;DHT22;10146;47.754;9.566;2023-02-23T10:53:53;12.40;99.90
19970;DHT22;10146;47.754;9.566;2023-02-23T10:56:20;12.20;99.90
19970;DHT22;10146;47.754;9.566;2023-02-23T10:58:53;12.10;99.90
19970;DHT22;10146;47.754;9.566;2023-02-23T11:01:41;12.10;99.90
19970;DHT22;10146;47.754;9.566;2023-02-23T11:04:30;12.00;99.90
19970;DHT22;10146;47.754;9.566;2023-02-23T11:07:20;12.00;99.90
19970;DHT22;10146;47.754;9.566;2023-02-23T11:09:45;12.00;99.90
19970;DHT22;10146;47.754;9.566;2023-02-23T11:12:47;12.10;99.90
19970;DHT22;10146;47.754;9.566;2023-02-23T11:17:58;11.80;99.90
19970;DHT22;10146;47.754;9.566;2023-02-23T11:20:31;12.00;99.90
19970;DHT22;10146;47.754;9.566;2023-02-23T11:23:07;12.10;99.90
19970;DHT22;10146;47.754;9.566;2023-02-23T11:25:33;12.10;99.90
19970;DHT22;10146;47.754;9.566;2023-02-23T11:27:59;12.10;99.90
19970;DHT22;10146;47.754;9.566;2023-02-23T11:30:30;11.90;99.90
19970;DHT22;10146;47.754;9.566;2023-02-23T11:32:59;11.80;99.90
19970;DHT22;10146;47.754;9.566;2023-02-23T11:35:34;11.70;99.90
19970;DHT22;10146;47.754;9.566;2023-02-23T11:38:27;11.70;99.90
19970;DHT22;10146;47.754;9.566;2023-02-23T11:41:04;11.70;99.90
19970;DHT22;10146;47.754;9.566;2023-02-23T11:43:31;11.70;99.90
19970;DHT22;10146;47.754;9.566;2023-02-23T11:45:59;11.90;99.90
19970;DHT22;10146;47.754;9.566;2023-02-23T11:48:46;12.00;99.90
19970;DHT22;10146;47.754;9.566;2023-02-23T11:51:31;12.20;99.90
19970;DHT22;10146;47.754;9.566;2023-02-23T11:53:58;12.40;99.90
19970;DHT22;10146;47.754;9.566;2023-02-23T11:56:25;12.50;99.90
19970;DHT22;10146;47.754;9.566;2023-02-23T11:58:54;12.50;99.90
19970;DHT22;10146;47.754;9.566;2023-02-23T12:02:24;12.70;99.90
19970;DHT22;10146;47.754;9.566;2023-02-23T12:04:39;13.00;99.90
19970;DHT22;10146;47.754;9.566;2023-02-23T12:09:48;13.00;99.90
19970;DHT22;10146;47.754;9.566;2023-02-23T12:12:19;13.20;99.90
19970;DHT22;10146;47.754;9.566;2023-02-23T12:15:11;13.20;99.90
19970;DHT22;10146;47.754;9.566;2023-02-23T12:17:50;13.10;99.90
19970;DHT22;10146;47.754;9.566;2023-02-23T12:20:31;13.00;99.90
19970;DHT22;10146;47.754;9.566;2023-02-23T12:23:07;13.10;99.90
19970;DHT22;10146;47.754;9.566;2023-02-23T12:25:48;13.00;99.90
19970;DHT22;10146;47.754;9.566;2023-02-23T12:28:34;13.20;99.90
19970;DHT22;10146;47.754;9.566;2023-02-23T12:31:34;13.40;99.90
19970;DHT22;10146;47.754;9.566;2023-02-23T12:34:11;13.40;99.90
19970;DHT22;10146;47.754;9.566;2023-02-23T12:39:20;13.60;99.90
19970;DHT22;10146;47.754;9.566;2023-02-23T12:46:52;13.50;99.90
19970;DHT22;10146;47.754;9.566;2023-02-23T12:52:07;13.40;99.90
19970;DHT22;10146;47.754;9.566;2023-02-23T12:54:34;13.70;99.90
19970;DHT22;10146;47.754;9.566;2023-02-23T13:02:43;14.00;99.90
19970;DHT22;10146;47.754;9.566;2023-02-23T13:13:23;14.10;99.90
19970;DHT22;10146;47.754;9.566;2023-02-23T13:24:38;14.70;99.90
19970;DHT22;10146;47.754;9.566;2023-02-23T13:32:00;14.90;99.90
19970;DHT22;10146;47.754;9.566;2023-02-23T13:34:32;14.80;99.90
19970;DHT22;10146;47.754;9.566;2023-02-23T13:37:03;15.00;99.90
19970;DHT22;10146;47.754;9.566;2023-02-23T13:39:46;15.10;99.90
19970;DHT22;10146;47.754;9.566;2023-02-23T13:42:28;15.20;99.90
19970;DHT22;10146;47.754;9.566;2023-02-23T13:47:30;15.30;99.90
19970;DHT22;10146;47.754;9.566;2023-02-23T13:52:52;15.10;99.90
19970;DHT22;10146;47.754;9.566;2023-02-23T13:58:03;15.40;99.90
19970;DHT22;10146;47.754;9.566;2023-02-23T14:00:32;15.30;99.90
19970;DHT22;10146;47.754;9.566;2023-02-23T14:03:05;15.20;99.90
19970;DHT22;10146;47.754;9.566;2023-02-23T14:05:41;15.20;99.90
19970;DHT22;10146;47.754;9.566;2023-02-23T14:08:53;15.40;99.90
19970;DHT22;10146;47.754;9.566;2023-02-23T14:11:28;15.70;99.90
19970;DHT22;10146;47.754;9.566;2023-02-23T14:14:00;15.90;99.90
19970;DHT22;10146;47.754;9.566;2023-02-23T14:16:26;15.90;99.90
19970;DHT22;10146;47.754;9.566;2023-02-23T14:18:53;15.80;99.90
19970;DHT22;10146;47.754;9.566;2023-02-23T14:21:32;16.00;99.90
19970;DHT22;10146;47.754;9.566;2023-02-23T14:24:22;15.90;99.90
19970;DHT22;10146;47.754;9.566;2023-02-23T14:29:38;15.50;99.90
19970;DHT22;10146;47.754;9.566;2023-02-23T14:37:39;15.70;99.90
19970;DHT22;10146;47.754;9.566;2023-02-23T14:40:19;15.50;99.90
19970;DHT22;10146;47.754;9.566;2023-02-23T14:42:49;15.50;99.90
19970;DHT22;10146;47.754;9.566;2023-02-23T14:45:26;15.50;99.90
19970;DHT22;10146;47.754;9.566;2023-02-23T14:48:00;15.40;99.90
19970;DHT22;10146;47.754;9.566;2023-02-23T14:50:34;15.50;99.90
19970;DHT22;10146;47.754;9.566;2023-02-23T14:53:02;15.60;99.90
19970;DHT22;10146;47.754;9.566;2023-02-23T14:55:32;15.70;99.90
19970;DHT22;10146;47.754;9.566;2023-02-23T14:58:02;15.80;99.90
19970;DHT22;10146;47.754;9.566;2023-02-23T15:00:31;15.90;99.90
19970;DHT22;10146;47.754;9.566;2023-02-23T15:03:00;15.80;99.90
19970;DHT22;10146;47.754;9.566;2023-02-23T15:05:31;15.90;99.90
19970;DHT22;10146;47.754;9.566;2023-02-23T15:07:59;15.90;99.90
19970;DHT22;10146;47.754;9.566;2023-02-23T15:10:37;15.80;99.90
19970;DHT22;10146;47.754;9.566;2023-02-23T15:13:09;15.60;99.90
19970;DHT22;10146;47.754;9.566;2023-02-23T15:15:40;15.40;99.90
19970;DHT22;10146;47.754;9.566;2023-02-23T15:18:20;15.40;99.90
19970;DHT22;10146;47.754;9.566;2023-02-23T15:20:47;15.80;99.90
19970;DHT22;10146;47.754;9.566;2023-02-23T15:23:16;15.70;99.90
19970;DHT22;10146;47.754;9.566;2023-02-23T15:25:43;15.20;99.90
19970;DHT22;10146;47.754;9.566;2023-02-23T15:28:27;14.80;99.90
19970;DHT22;10146;47.754;9.566;2023-02-23T15:31:00;14.50;99.90
19970;DHT22;10146;47.754;9.566;2023-02-23T15:33:28;14.90;99.90
19970;DHT22;10146;47.754;9.566;2023-02-23T15:36:09;14.90;99.90
19970;DHT22;10146;47.754;9.566;2023-02-23T15:38:44;14.80;99.90
19970;DHT22;10146;47.754;9.566;2023-02-23T15:41:33;14.50;99.90
19970;DHT22;10146;47.754;9.566;2023-02-23T15:44:21;14.50;99.90
19970;DHT22;10146;47.754;9.566;2023-02-23T15:46:59;14.60;99.90
19970;DHT22;10146;47.754;9.566;2023-02-23T15:49:30;15.00;99.90
19970;DHT22;10146;47.754;9.566;2023-02-23T15:51:59;14.90;99.90
19970;DHT22;10146;47.754;9.566;2023-02-23T15:54:56;15.20;99.90
19970;DHT22;10146;47.754;9.566;2023-02-23T15:57:54;14.90;99.90
19970;DHT22;10146;47.754;9.566;2023-02-23T16:00:35;14.70;99.90
19970;DHT22;10146;47.754;9.566;2023-02-23T16:03:03;14.30;99.90
19970;DHT22;10146;47.754;9.566;2023-02-23T16:05:31;13.90;99.90
19970;DHT22;10146;47.754;9.566;2023-02-23T16:08:23;13.30;99.90
19970;DHT22;10146;47.754;9.566;2023-02-23T16:11:13;12.90;99.90
19970;DHT22;10146;47.754;9.566;2023-02-23T16:13:44;12.70;99.90
19970;DHT22;10146;47.754;9.566;2023-02-23T16:16:13;12.50;99.90
19970;DHT22;10146;47.754;9.566;2023-02-23T16:18:45;12.40;99.90
19970;DHT22;10146;47.754;9.566;2023-02-23T16:21:18;12.30;99.90
19970;DHT22;10146;47.754;9.566;2023-02-23T16:23:47;12.10;99.90
19970;DHT22;10146;47.754;9.566;2023-02-23T16:27:02;12.00;99.90
19970;DHT22;10146;47.754;9.566;2023-02-23T16:29:08;12.00;99.90
19970;DHT22;10146;47.754;9.566;2023-02-23T16:31:42;11.80;99.90
19970;DHT22;10146;47.754;9.566;2023-02-23T16:34:26;11.70;99.90
19970;DHT22;10146;47.754;9.566;2023-02-23T16:36:57;11.60;99.90
19970;DHT22;10146;47.754;9.566;2023-02-23T16:39:28;11.60;99.90
19970;DHT22;10146;47.754;9.566;2023-02-23T16:41:55;11.50;99.90
19970;DHT22;10146;47.754;9.566;2023-02-23T16:44:24;11.40;99.90
19970;DHT22;10146;47.754;9.566;2023-02-23T16:49:28;11.30;99.90
19970;DHT22;10146;47.754;9.566;2023-02-23T16:51:58;11.10;99.90
19970;DHT22;10146;47.754;9.566;2023-02-23T16:54:24;11.10;99.90
19970;DHT22;10146;47.754;9.566;2023-02-23T16:56:50;10.90;99.90
19970;DHT22;10146;47.754;9.566;2023-02-23T16:59:21;10.80;99.90
19970;DHT22;10146;47.754;9.566;2023-02-23T17:01:47;10.70;99.90
19970;DHT22;10146;47.754;9.566;2023-02-23T17:04:16;10.60;99.90
19970;DHT22;10146;47.754;9.566;2023-02-23T17:06:43;10.40;99.90
19970;DHT22;10146;47.754;9.566;2023-02-23T17:09:12;10.20;99.90
19970;DHT22;10146;47.754;9.566;2023-02-23T17:11:39;10.20;99.90
19970;DHT22;10146;47.754;9.566;2023-02-23T17:14:05;10.10;99.90
19970;DHT22;10146;47.754;9.566;2023-02-23T17:16:31;10.10;99.90
19970;DHT22;10146;47.754;9.566;2023-02-23T17:18:56;9.90;99.90
19970;DHT22;10146;47.754;9.566;2023-02-23T17:21:26;9.80;99.90
19970;DHT22;10146;47.754;9.566;2023-02-23T17:23:52;9.70;99.90
19970;DHT22;10146;47.754;9.566;2023-02-23T17:26:20;9.70;99.90
19970;DHT22;10146;47.754;9.566;2023-02-23T17:28:46;9.60;99.90
19970;DHT22;10146;47.754;9.566;2023-02-23T17:31:13;9.70;99.90
19970;DHT22;10146;47.754;9.566;2023-02-23T17:33:40;9.60;99.90
19970;DHT22;10146;47.754;9.566;2023-02-23T17:36:11;9.50;99.90
19970;DHT22;10146;47.754;9.566;2023-02-23T17:38:38;9.30;99.90
19970;DHT22;10146;47.754;9.566;2023-02-23T17:41:11;9.20;99.90
19970;DHT22;10146;47.754;9.566;2023-02-23T17:43:36;9.20;99.90
19970;DHT22;10146;47.754;9.566;2023-02-23T17:46:03;9.20;99.90
19970;DHT22;10146;47.754;9.566;2023-02-23T17:48:29;9.10;99.90
19970;DHT22;10146;47.754;9.566;2023-02-23T17:51:00;9.00;99.90
19970;DHT22;10146;47.754;9.566;2023-02-23T17:53:28;8.90;99.90
19970;DHT22;10146;47.754;9.566;2023-02-23T17:55:55;8.90;99.90
19970;DHT22;10146;47.754;9.566;2023-02-23T17:58:21;8.90;99.90
19970;DHT22;10146;47.754;9.566;2023-02-23T18:00:48;8.70;99.90
19970;DHT22;10146;47.754;9.566;2023-02-23T18:03:17;8.60;99.90
19970;DHT22;10146;47.754;9.566;2023-02-23T18:05:43;8.70;99.90